Afton, California
Current Conditions -  °F | °C
As of 10:53 AM on Tuesday 21 Oct 2014 (Local Time) from KOVE Reporting Station
Clear Clear  
Wind Chill: 62°   Ceiling: Unl
Heat Index: 62°   Visibility: 10mi
Dew Point: 47°   Wind: 8mph
Humidity: 58%   Direction: 310°NW
Pressure: 30.11"   Gusts: NA
Location:  39.4608°N, 121.937°W
Report Text: KOVE 211753Z AUTO 31007KT 10SM CLR 17/08 A3011 RMK AO2 SLP197 T01670083 10172 20094 58003 $
Loading
Personal Weather Stations






























Interactive Weather Map
Tropical Storm Tracking
New forecast layout! Learn more

10-Day Weather Forecast

Advertisements
Track Severe Weather on mobile